createdAt,value
2023-05-01T00:02:27.983Z,293.38
2023-05-01T00:04:56.285Z,280.67
2023-05-01T00:07:24.438Z,296.70
2023-05-01T00:09:52.961Z,289.98
2023-05-01T00:12:20.975Z,281.80
2023-05-01T00:14:48.628Z,281.13
2023-05-01T00:17:18.281Z,285.08
2023-05-01T00:19:46.060Z,292.40
2023-05-01T00:22:14.184Z,299.92
2023-05-01T00:24:41.996Z,282.80
2023-05-01T00:27:10.393Z,283.20
2023-05-01T00:29:38.158Z,278.45
2023-05-01T00:32:07.312Z,287.00
2023-05-01T00:34:36.373Z,295.83
2023-05-01T00:37:04.896Z,279.35
2023-05-01T00:39:32.642Z,288.23
2023-05-01T00:42:00.947Z,291.77
2023-05-01T00:44:28.628Z,288.27
2023-05-01T00:47:00.119Z,298.90
2023-05-01T00:49:27.938Z,288.55
2023-05-01T00:51:58.737Z,283.30
2023-05-01T00:54:27.624Z,305.17
2023-05-01T00:56:55.631Z,319.08
2023-05-01T00:59:23.871Z,287.65
2023-05-01T01:04:20.050Z,298.63
2023-05-01T01:06:57.728Z,295.65
2023-05-01T01:09:40.664Z,289.23
2023-05-01T01:12:17.149Z,289.45
2023-05-01T01:14:52.119Z,305.70
2023-05-01T01:17:31.488Z,297.42
2023-05-01T01:20:25.824Z,290.25
2023-05-01T01:23:02.398Z,287.40
2023-05-01T01:26:01.601Z,295.50
2023-05-01T01:29:03.918Z,307.17
2023-05-01T01:31:37.694Z,296.63
2023-05-01T01:34:14.590Z,293.05
2023-05-01T01:36:47.526Z,305.85
2023-05-01T01:39:28.283Z,287.08
2023-05-01T01:41:59.490Z,290.83
2023-05-01T01:44:34.800Z,290.48
2023-05-01T01:47:07.486Z,314.92
2023-05-01T01:49:39.442Z,295.20
2023-05-01T01:52:09.751Z,280.50
2023-05-01T01:54:41.756Z,307.85
2023-05-01T01:57:14.146Z,310.52
2023-05-01T01:59:43.073Z,318.10
2023-05-01T02:02:12.487Z,313.58
2023-05-01T02:04:43.807Z,286.80
2023-05-01T02:07:14.307Z,302.73
2023-05-01T02:09:43.377Z,295.05
2023-05-01T02:12:13.029Z,286.10
2023-05-01T02:14:43.438Z,289.80
2023-05-01T02:17:11.678Z,317.48
2023-05-01T02:19:41.888Z,287.02
2023-05-01T02:22:11.586Z,289.08
2023-05-01T02:24:41.110Z,285.90
2023-05-01T02:27:16.796Z,303.40
2023-05-01T02:29:44.485Z,284.70
2023-05-01T02:32:13.471Z,295.92
2023-05-01T02:34:43.201Z,294.65
2023-05-01T02:37:12.595Z,286.92
2023-05-01T02:39:43.019Z,295.92
2023-05-01T02:42:12.712Z,303.02
2023-05-01T02:44:44.587Z,288.88
2023-05-01T02:47:19.169Z,287.58
2023-05-01T02:49:49.615Z,292.92
2023-05-01T02:52:19.707Z,298.15
2023-05-01T02:54:50.783Z,302.65
2023-05-01T02:57:20.559Z,290.58
2023-05-01T02:59:48.305Z,309.63
2023-05-01T03:02:16.751Z,300.48
2023-05-01T03:04:45.124Z,290.75
2023-05-01T03:07:14.493Z,285.35
2023-05-01T03:09:42.639Z,289.23
2023-05-01T03:12:10.356Z,284.95
2023-05-01T03:14:38.467Z,277.88
2023-05-01T03:17:06.085Z,307.55
2023-05-01T03:19:34.322Z,312.45
2023-05-01T03:22:02.086Z,283.67
2023-05-01T03:24:32.117Z,283.27
2023-05-01T03:26:59.708Z,276.80
2023-05-01T03:29:28.934Z,306.02
2023-05-01T03:31:57.982Z,298.00
2023-05-01T03:34:25.815Z,289.35
2023-05-01T03:36:55.693Z,298.80
2023-05-01T03:39:25.510Z,298.98
2023-05-01T03:42:17.015Z,287.83
2023-05-01T03:44:45.727Z,289.77
2023-05-01T03:47:14.555Z,309.95
2023-05-01T03:49:43.738Z,294.13
2023-05-01T03:52:12.503Z,287.15
2023-05-01T03:54:40.758Z,289.02
2023-05-01T03:57:23.421Z,285.13
2023-05-01T03:59:51.580Z,280.95
2023-05-01T04:02:20.924Z,284.92
2023-05-01T04:04:48.593Z,298.33
2023-05-01T04:07:16.786Z,307.25
2023-05-01T04:09:48.545Z,296.17
2023-05-01T04:12:16.310Z,293.45
2023-05-01T04:14:46.039Z,288.20
2023-05-01T04:17:13.830Z,292.10
2023-05-01T04:19:42.077Z,291.10
2023-05-01T04:22:11.087Z,301.48
2023-05-01T04:24:39.582Z,313.25
2023-05-01T04:27:08.130Z,297.42
2023-05-01T04:29:35.777Z,279.30
2023-05-01T04:32:05.313Z,304.83
2023-05-01T04:34:33.131Z,288.67
2023-05-01T04:37:01.863Z,304.50
2023-05-01T04:39:30.453Z,280.95
2023-05-01T04:41:59.040Z,296.25
2023-05-01T04:44:27.007Z,309.45
2023-05-01T04:46:55.224Z,298.42
2023-05-01T04:49:24.316Z,305.48
2023-05-01T04:51:52.503Z,291.50
2023-05-01T04:54:20.862Z,302.38
2023-05-01T04:56:48.837Z,309.42
2023-05-01T04:59:16.959Z,316.35
2023-05-01T05:01:45.072Z,303.40
2023-05-01T05:04:12.929Z,296.15
2023-05-01T05:06:42.085Z,301.50
2023-05-01T05:09:18.061Z,314.90
2023-05-01T05:11:47.810Z,311.00
2023-05-01T05:14:21.851Z,300.60
2023-05-01T05:16:49.501Z,300.17
2023-05-01T05:19:17.818Z,298.63
2023-05-01T05:21:47.665Z,305.80
2023-05-01T05:24:15.818Z,302.25
2023-05-01T05:26:43.478Z,289.58
2023-05-01T05:29:11.515Z,305.45
2023-05-01T05:31:39.265Z,284.02
2023-05-01T05:34:07.060Z,308.08
2023-05-01T05:36:35.447Z,325.88
2023-05-01T05:39:04.869Z,300.20
2023-05-01T05:41:33.958Z,286.05
2023-05-01T05:44:04.017Z,302.15
2023-05-01T05:46:32.303Z,312.15
2023-05-01T05:49:00.887Z,313.17
2023-05-01T05:51:30.465Z,321.80
2023-05-01T05:53:58.790Z,319.38
2023-05-01T05:56:28.317Z,296.55
2023-05-01T05:58:57.233Z,302.70
2023-05-01T06:01:24.966Z,319.00
2023-05-01T06:03:53.172Z,289.27
2023-05-01T06:06:21.087Z,284.98
2023-05-01T06:08:50.007Z,292.77
2023-05-01T06:11:17.875Z,307.27
2023-05-01T06:13:46.824Z,305.85
2023-05-01T06:16:15.399Z,282.02
2023-05-01T06:18:45.593Z,287.38
2023-05-01T06:21:14.138Z,291.58
2023-05-01T06:23:41.818Z,281.65
2023-05-01T06:26:31.973Z,270.17
2023-05-01T06:29:00.994Z,280.52
2023-05-01T06:31:29.559Z,275.13
2023-05-01T06:33:58.170Z,282.20
2023-05-01T06:36:48.634Z,265.90
2023-05-01T06:39:16.298Z,260.52
2023-05-01T06:41:47.243Z,274.70
2023-05-01T06:44:18.127Z,277.67
2023-05-01T06:46:46.279Z,299.35
2023-05-01T06:49:13.994Z,311.08
2023-05-01T06:51:41.651Z,281.90
2023-05-01T06:54:09.864Z,285.92
2023-05-01T06:56:37.457Z,281.50
2023-05-01T06:59:06.091Z,288.63
2023-05-01T07:01:35.711Z,296.70
2023-05-01T07:04:04.802Z,271.50
2023-05-01T07:06:33.196Z,299.95
2023-05-01T07:09:01.117Z,281.65
2023-05-01T07:11:28.737Z,289.90
2023-05-01T07:13:56.691Z,280.95
2023-05-01T07:16:24.684Z,267.88
2023-05-01T07:18:54.093Z,261.92
2023-05-01T07:21:22.334Z,254.02
2023-05-01T07:23:50.634Z,262.45
2023-05-01T07:26:18.254Z,250.25
2023-05-01T07:28:46.586Z,254.77
2023-05-01T07:31:14.224Z,231.80
2023-05-01T07:33:42.965Z,231.70
2023-05-01T07:36:13.001Z,235.65
2023-05-01T07:38:41.397Z,234.63
2023-05-01T07:41:09.041Z,235.65
2023-05-01T07:43:37.073Z,242.85
2023-05-01T07:46:05.431Z,225.73
2023-05-01T07:48:34.012Z,231.90
2023-05-01T07:51:03.080Z,302.02
2023-05-01T07:59:38.315Z,132.00
2023-05-01T08:04:19.284Z,150.95
2023-05-01T08:06:46.998Z,219.68
2023-05-01T08:09:15.080Z,191.70
2023-05-01T08:11:42.717Z,215.50
2023-05-01T08:14:10.377Z,251.40
2023-05-01T08:16:38.908Z,221.77
2023-05-01T08:19:06.548Z,267.15
2023-05-01T08:21:35.782Z,245.10
2023-05-01T08:24:03.411Z,264.63
2023-05-01T08:26:31.469Z,313.23
2023-05-01T08:28:59.057Z,264.98
2023-05-01T08:31:27.054Z,290.95
2023-05-01T08:33:54.793Z,277.20
2023-05-01T08:36:22.741Z,293.20
2023-05-01T08:38:51.638Z,318.70
2023-05-01T08:41:23.927Z,284.90
2023-05-01T08:43:51.692Z,288.48
2023-05-01T08:46:30.385Z,314.13
2023-05-01T08:48:59.620Z,307.75
2023-05-01T08:51:28.978Z,291.35
2023-05-01T08:54:00.439Z,271.55
2023-05-01T08:56:29.322Z,278.63
2023-05-01T08:58:59.368Z,308.83
2023-05-01T09:01:29.342Z,302.27
2023-05-01T09:03:59.081Z,289.58
2023-05-01T09:06:28.364Z,280.15
2023-05-01T09:08:56.730Z,318.23
2023-05-01T09:11:26.682Z,265.15
2023-05-01T09:13:54.889Z,308.42
2023-05-01T09:16:23.218Z,254.05
2023-05-01T09:18:51.347Z,323.08
2023-05-01T09:21:19.900Z,289.83
2023-05-01T09:23:51.339Z,278.10
2023-05-01T09:26:19.478Z,296.45
2023-05-01T09:28:51.659Z,288.77
2023-05-01T09:31:23.776Z,279.95
2023-05-01T09:33:54.947Z,279.00
2023-05-01T09:36:24.983Z,274.92
2023-05-01T09:38:53.222Z,276.40
2023-05-01T09:41:22.317Z,277.55
2023-05-01T09:43:52.725Z,272.63
2023-05-01T09:46:20.993Z,292.13
2023-05-01T09:48:59.744Z,278.63
2023-05-01T09:51:29.162Z,296.42
2023-05-01T09:53:58.622Z,313.20
2023-05-01T09:56:27.347Z,302.45
2023-05-01T09:58:57.354Z,277.42
2023-05-01T10:01:41.160Z,291.08
2023-05-01T10:04:10.300Z,269.80
2023-05-01T10:06:38.779Z,278.98
2023-05-01T10:09:16.661Z,241.10
2023-05-01T10:11:52.104Z,270.02
2023-05-01T10:14:24.014Z,288.08
2023-05-01T10:16:53.050Z,286.10
2023-05-01T10:19:22.195Z,282.55
2023-05-01T10:21:50.091Z,290.73
2023-05-01T10:24:18.386Z,248.40
2023-05-01T10:26:49.473Z,276.10
2023-05-01T10:29:17.590Z,268.75
2023-05-01T10:31:46.654Z,251.15
2023-05-01T10:34:19.256Z,238.48
2023-05-01T10:36:51.211Z,256.15
2023-05-01T10:39:31.263Z,239.10
2023-05-01T10:42:04.491Z,238.90
2023-05-01T10:44:33.009Z,228.30
2023-05-01T10:47:41.484Z,211.07
2023-05-01T10:50:10.936Z,219.80
2023-05-01T10:53:16.273Z,221.93
2023-05-01T10:55:45.216Z,236.20
2023-05-01T10:58:13.634Z,190.52
2023-05-01T11:00:42.263Z,182.00
2023-05-01T11:03:36.612Z,208.07
2023-05-01T11:06:08.333Z,178.40
2023-05-01T11:08:38.458Z,169.88
2023-05-01T11:11:51.659Z,179.90
2023-05-01T11:14:19.419Z,202.35
2023-05-01T11:16:49.057Z,183.48
2023-05-01T11:19:50.820Z,168.75
2023-05-01T11:22:20.398Z,191.32
2023-05-01T11:24:48.199Z,184.18
2023-05-01T11:27:16.640Z,166.05
2023-05-01T11:29:48.668Z,181.38
2023-05-01T11:32:23.395Z,153.15
2023-05-01T11:34:52.193Z,173.13
2023-05-01T11:37:21.795Z,170.57
2023-05-01T11:39:53.852Z,167.30
2023-05-01T11:42:23.450Z,152.32
2023-05-01T11:45:07.202Z,144.38
2023-05-01T11:47:35.046Z,189.43
2023-05-01T11:50:02.885Z,147.73
2023-05-01T11:52:42.877Z,136.75
2023-05-01T11:55:11.671Z,155.93
2023-05-01T11:57:47.178Z,163.88
2023-05-01T12:00:16.686Z,145.45
2023-05-01T12:02:58.185Z,134.13
2023-05-01T12:05:26.622Z,142.80
2023-05-01T12:08:07.655Z,142.32
2023-05-01T12:10:36.434Z,150.10
2023-05-01T12:13:05.164Z,135.40
2023-05-01T12:15:35.074Z,133.52
2023-05-01T12:18:02.956Z,142.40
2023-05-01T12:20:38.808Z,132.57
2023-05-01T12:23:09.695Z,127.13
2023-05-01T12:25:39.920Z,128.85
2023-05-01T12:28:14.267Z,143.23
2023-05-01T12:30:42.863Z,112.18
2023-05-01T12:33:26.160Z,143.23
2023-05-01T12:35:54.327Z,152.60
2023-05-01T12:38:24.581Z,158.27
2023-05-01T12:40:54.650Z,120.25
2023-05-01T12:46:05.279Z,120.82
2023-05-01T12:48:34.153Z,131.98
2023-05-01T12:51:02.281Z,106.55
2023-05-01T12:53:31.635Z,83.50
2023-05-01T12:56:01.165Z,109.00
2023-05-01T12:58:37.199Z,72.00
2023-05-01T13:01:06.554Z,72.10
2023-05-01T13:03:38.499Z,106.35
2023-05-01T13:06:07.416Z,73.18
2023-05-01T13:08:39.342Z,96.85
2023-05-01T13:11:13.040Z,83.20
2023-05-01T13:13:41.615Z,85.28
2023-05-01T13:16:12.877Z,76.18
2023-05-01T13:18:45.563Z,89.30
2023-05-01T13:21:16.417Z,102.18
2023-05-01T13:23:54.220Z,70.47
2023-05-01T13:26:27.956Z,88.57
2023-05-01T13:28:57.024Z,121.40
2023-05-01T13:31:25.071Z,84.22
2023-05-01T13:33:54.514Z,75.90
2023-05-01T13:36:26.188Z,80.88
2023-05-01T13:38:57.637Z,87.38
2023-05-01T13:41:27.176Z,108.15
2023-05-01T13:43:56.748Z,79.45
2023-05-01T13:46:26.798Z,67.55
2023-05-01T13:48:54.614Z,117.90
2023-05-01T13:51:24.182Z,104.15
2023-05-01T13:53:54.181Z,128.40
2023-05-01T13:56:23.433Z,156.70
2023-05-01T13:58:51.128Z,127.03
2023-05-01T14:01:20.326Z,112.32
2023-05-01T14:03:48.921Z,120.07
2023-05-01T14:06:18.957Z,91.53
2023-05-01T14:08:48.252Z,129.82
2023-05-01T14:11:16.803Z,85.80
2023-05-01T14:13:49.442Z,78.97
2023-05-01T14:16:24.359Z,61.40
2023-05-01T14:18:54.437Z,87.93
2023-05-01T14:21:23.869Z,91.50
2023-05-01T14:23:53.737Z,77.25
2023-05-01T14:26:23.827Z,64.82
2023-05-01T14:28:53.562Z,90.75
2023-05-01T14:31:27.087Z,78.97
2023-05-01T14:33:57.824Z,117.53
2023-05-01T14:36:26.603Z,104.22
2023-05-01T14:38:57.685Z,75.85
2023-05-01T14:41:25.524Z,85.43
2023-05-01T14:43:54.688Z,92.03
2023-05-01T14:46:29.213Z,86.35
2023-05-01T14:48:57.014Z,116.15
2023-05-01T14:51:24.902Z,94.60
2023-05-01T14:53:52.977Z,79.43
2023-05-01T14:56:21.149Z,111.40
2023-05-01T14:58:48.735Z,88.18
2023-05-01T15:01:18.337Z,121.38
2023-05-01T15:03:46.383Z,193.15
2023-05-01T15:06:14.446Z,114.80
2023-05-01T15:08:42.148Z,99.78
2023-05-01T15:11:09.904Z,120.70
2023-05-01T15:13:37.523Z,111.60
2023-05-01T15:16:05.769Z,113.38
2023-05-01T15:18:35.428Z,122.38
2023-05-01T15:21:03.014Z,125.95
2023-05-01T15:23:31.862Z,110.22
2023-05-01T15:26:00.847Z,108.65
2023-05-01T15:28:28.475Z,113.18
2023-05-01T15:30:56.346Z,144.20
2023-05-01T15:33:24.125Z,150.10
2023-05-01T15:35:54.277Z,204.25
2023-05-01T15:38:22.138Z,270.20
2023-05-01T15:40:50.386Z,310.20
2023-05-01T15:43:17.948Z,350.23
2023-05-01T15:45:45.742Z,110.78
2023-05-01T15:48:13.760Z,110.88
2023-05-01T15:50:41.518Z,338.67
2023-05-01T15:53:10.726Z,552.28
2023-05-01T15:55:38.342Z,105.22
2023-05-01T15:58:05.985Z,103.68
2023-05-01T16:00:35.998Z,157.40
2023-05-01T16:03:04.567Z,133.20
2023-05-01T16:05:33.126Z,136.23
2023-05-01T16:08:02.147Z,179.07
2023-05-01T16:10:37.203Z,128.73
2023-05-01T16:13:06.148Z,138.43
2023-05-01T16:15:34.877Z,151.32
2023-05-01T16:18:05.068Z,109.85
2023-05-01T16:20:35.864Z,147.93
2023-05-01T16:23:04.209Z,189.52
2023-05-01T16:25:33.273Z,168.02
2023-05-01T16:28:01.223Z,188.05
2023-05-01T16:30:28.817Z,233.55
2023-05-01T16:32:56.947Z,205.20
2023-05-01T16:35:28.255Z,205.57
2023-05-01T16:37:56.470Z,184.50
2023-05-01T16:40:24.423Z,269.98
2023-05-01T16:42:54.277Z,208.63
2023-05-01T16:45:22.633Z,212.50
2023-05-01T16:47:51.305Z,215.90
2023-05-01T16:50:20.545Z,222.40
2023-05-01T16:52:48.599Z,222.93
2023-05-01T16:55:16.625Z,217.32
2023-05-01T16:57:44.679Z,223.95
2023-05-01T17:00:15.189Z,195.65
2023-05-01T17:02:44.701Z,245.82
2023-05-01T17:05:12.545Z,253.23
2023-05-01T17:07:40.224Z,273.27
2023-05-01T17:10:09.070Z,296.42
2023-05-01T17:12:36.928Z,304.08
2023-05-01T17:15:06.170Z,288.83
2023-05-01T17:17:36.597Z,262.00
2023-05-01T17:20:04.660Z,257.90
2023-05-01T17:22:32.563Z,314.95
2023-05-01T17:25:02.403Z,293.20
2023-05-01T17:27:30.906Z,285.73
2023-05-01T17:29:58.589Z,284.27
2023-05-01T17:32:36.356Z,305.98
2023-05-01T17:35:07.489Z,311.33
2023-05-01T17:37:35.161Z,289.33
2023-05-01T17:40:04.897Z,274.50
2023-05-01T17:42:32.583Z,271.90
2023-05-01T17:45:00.257Z,257.52
2023-05-01T17:47:28.245Z,287.00
2023-05-01T17:49:56.059Z,265.48
2023-05-01T17:52:25.447Z,273.80
2023-05-01T17:54:53.051Z,251.90
2023-05-01T17:57:20.982Z,243.88
2023-05-01T17:59:48.621Z,238.90
2023-05-01T18:02:16.240Z,190.45
2023-05-01T18:04:43.951Z,209.15
2023-05-01T18:07:11.959Z,211.70
2023-05-01T18:09:41.269Z,191.80
2023-05-01T18:12:10.244Z,195.60
2023-05-01T18:14:38.610Z,186.55
2023-05-01T18:17:06.476Z,197.20
2023-05-01T18:19:34.144Z,195.98
2023-05-01T18:22:03.582Z,229.18
2023-05-01T18:24:31.640Z,239.93
2023-05-01T18:27:00.957Z,251.55
2023-05-01T18:29:28.629Z,268.30
2023-05-01T18:31:56.418Z,284.80
2023-05-01T18:34:25.015Z,260.17
2023-05-01T18:36:54.589Z,182.70
2023-05-01T18:39:22.973Z,206.82
2023-05-01T18:41:51.364Z,278.33
2023-05-01T18:44:20.515Z,216.02
2023-05-01T18:46:48.164Z,232.30
2023-05-01T18:49:15.790Z,199.60
2023-05-01T18:51:43.509Z,177.65
2023-05-01T18:54:11.115Z,213.48
2023-05-01T19:00:27.789Z,206.10
2023-05-01T19:02:55.753Z,205.55
2023-05-01T19:05:25.046Z,235.52
2023-05-01T19:07:54.993Z,212.93
2023-05-01T19:10:22.911Z,216.10
2023-05-01T19:12:50.582Z,195.30
2023-05-01T19:15:24.766Z,196.63
2023-05-01T19:17:54.778Z,220.75
2023-05-01T19:20:22.410Z,221.68
2023-05-01T19:22:50.190Z,196.50
2023-05-01T19:25:17.986Z,210.10
2023-05-01T19:27:46.302Z,206.27
2023-05-01T19:30:15.081Z,209.35
2023-05-01T19:32:42.739Z,205.13
2023-05-01T19:35:12.384Z,200.15
2023-05-01T19:37:40.057Z,207.63
2023-05-01T19:40:09.223Z,229.27
2023-05-01T19:42:37.353Z,214.32
2023-05-01T19:45:06.034Z,226.52
2023-05-01T19:47:33.921Z,210.00
2023-05-01T19:50:02.117Z,240.23
2023-05-01T19:52:31.873Z,204.18
2023-05-01T19:55:02.858Z,211.30
2023-05-01T19:57:30.542Z,240.82
2023-05-01T19:59:59.326Z,265.55
2023-05-01T20:02:27.712Z,222.20
2023-05-01T20:04:55.729Z,249.25
2023-05-01T20:07:23.431Z,241.27
2023-05-01T20:09:53.488Z,258.88
2023-05-01T20:12:22.518Z,268.50
2023-05-01T20:14:50.136Z,255.88
2023-05-01T20:17:18.287Z,206.95
2023-05-01T20:19:45.944Z,132.43
2023-05-01T20:22:14.178Z,162.50
2023-05-01T20:24:41.830Z,120.47
2023-05-01T20:27:11.225Z,117.65
2023-05-01T20:29:39.566Z,145.57
2023-05-01T20:32:07.609Z,221.48
2023-05-01T20:34:35.276Z,225.32
2023-05-01T20:37:02.901Z,198.73
2023-05-01T20:39:31.006Z,256.75
2023-05-01T20:41:59.021Z,234.90
2023-05-01T20:44:28.040Z,262.48
2023-05-01T20:46:56.121Z,331.48
2023-05-01T20:49:23.812Z,302.80
2023-05-01T20:51:51.454Z,328.17
2023-05-01T20:54:19.077Z,339.52
2023-05-01T20:56:46.694Z,347.02
2023-05-01T20:59:14.567Z,341.77
2023-05-01T21:01:43.863Z,350.83
2023-05-01T21:04:11.852Z,364.83
2023-05-01T21:06:39.558Z,340.52
2023-05-01T21:09:11.408Z,334.52
2023-05-01T21:11:40.451Z,318.27
2023-05-01T21:14:08.282Z,309.02
2023-05-01T21:16:36.418Z,345.75
2023-05-01T21:19:06.250Z,289.05
2023-05-01T21:21:36.600Z,300.38
2023-05-01T21:24:04.619Z,312.75
2023-05-01T21:26:32.591Z,315.75
2023-05-01T21:29:00.460Z,281.30
2023-05-01T21:31:32.314Z,302.73
2023-05-01T21:34:02.267Z,283.92
2023-05-01T21:36:32.318Z,300.30
2023-05-01T21:39:01.463Z,320.48
2023-05-01T21:41:29.321Z,289.83
2023-05-01T21:43:57.174Z,290.23
2023-05-01T21:46:25.108Z,288.73
2023-05-01T21:48:52.829Z,326.50
2023-05-01T21:51:27.230Z,307.50
2023-05-01T21:53:56.311Z,273.95
2023-05-01T21:56:24.021Z,286.00
2023-05-01T21:58:52.333Z,303.40
2023-05-01T22:01:22.602Z,305.77
2023-05-01T22:03:51.784Z,300.13
2023-05-01T22:06:19.529Z,305.80
2023-05-01T22:08:47.893Z,302.38
2023-05-01T22:11:16.868Z,288.35
2023-05-01T22:13:44.496Z,287.25
2023-05-01T22:16:13.916Z,317.73
2023-05-01T22:18:41.609Z,318.65
2023-05-01T22:21:09.642Z,276.70
2023-05-01T22:23:37.274Z,292.15
2023-05-01T22:26:04.935Z,307.30
2023-05-01T22:28:33.917Z,288.10
2023-05-01T22:31:01.774Z,283.67
2023-05-01T22:33:29.399Z,304.80
2023-05-01T22:35:56.983Z,320.40
2023-05-01T22:38:24.919Z,320.85
2023-05-01T22:40:52.498Z,309.63
2023-05-01T22:43:20.213Z,289.00
2023-05-01T22:45:49.426Z,280.73
2023-05-01T22:48:17.105Z,297.75
2023-05-01T22:50:44.968Z,295.98
2023-05-01T22:53:12.600Z,313.15
2023-05-01T22:55:40.501Z,305.42
2023-05-01T22:58:08.234Z,313.98
2023-05-01T23:00:36.470Z,275.92
2023-05-01T23:03:05.618Z,291.42
2023-05-01T23:05:33.726Z,318.20
2023-05-01T23:08:01.957Z,303.88
2023-05-01T23:10:31.181Z,327.33
2023-05-01T23:13:01.328Z,296.58
2023-05-01T23:15:29.381Z,281.85
2023-05-01T23:17:57.724Z,306.15
2023-05-01T23:20:26.747Z,302.83
2023-05-01T23:22:54.782Z,301.23
2023-05-01T23:25:25.369Z,299.55
2023-05-01T23:27:56.669Z,312.45
2023-05-01T23:30:24.516Z,333.55
2023-05-01T23:32:52.335Z,297.23
2023-05-01T23:35:24.185Z,295.80
2023-05-01T23:37:53.571Z,309.83
2023-05-01T23:40:21.885Z,292.52
2023-05-01T23:42:50.105Z,308.02
2023-05-01T23:45:17.941Z,301.13
2023-05-01T23:47:45.922Z,295.88
2023-05-01T23:50:13.801Z,329.70
2023-05-01T23:52:41.541Z,293.17
2023-05-01T23:55:11.006Z,295.48
2023-05-01T23:57:38.625Z,309.08
